TimeEST,TemperatureF,Dew PointF,Humidity,Sea Level PressureIn,VisibilityMPH,Wind Direction,Wind SpeedMPH,Gust SpeedMPH,PrecipitationIn,Events,Conditions,WindDirDegrees,DateUTC
12:15 AM,25.7,23.4,91,30.14,7.0,Calm,Calm,-,N/A,,Clear,0,2013-02-25 05:15:00
12:35 AM,25.2,23.0,91,30.14,5.0,Calm,Calm,-,N/A,Snow,Light Snow,0,2013-02-25 05:35:00
12:55 AM,24.6,22.5,91,30.14,4.0,Calm,Calm,-,N/A,Snow,Light Snow,0,2013-02-25 05:55:00
1:15 AM,24.3,22.3,92,30.14,7.0,Calm,Calm,-,N/A,,Clear,0,2013-02-25 06:15:00
1:35 AM,24.6,22.5,91,30.14,7.0,Calm,Calm,-,N/A,,Clear,0,2013-02-25 06:35:00
1:55 AM,24.4,22.1,91,30.14,7.0,Calm,Calm,-,N/A,,Clear,0,2013-02-25 06:55:00
2:15 AM,23.9,21.9,92,30.13,7.0,Calm,Calm,-,N/A,,Clear,0,2013-02-25 07:15:00
2:35 AM,23.4,21.6,93,30.14,7.0,Calm,Calm,-,N/A,,Clear,0,2013-02-25 07:35:00
2:55 AM,23.4,21.2,91,30.13,7.0,East,3.5,-,N/A,,Clear,100,2013-02-25 07:55:00
3:15 AM,23.4,21.2,91,30.13,7.0,Calm,Calm,-,N/A,,Clear,0,2013-02-25 08:15:00
3:35 AM,23.9,21.0,89,30.13,10.0,ESE,3.5,-,N/A,,Clear,110,2013-02-25 08:35:00
3:55 AM,23.9,20.8,88,30.13,7.0,ESE,3.5,-,N/A,Snow,Light Snow,110,2013-02-25 08:55:00
4:15 AM,23.9,20.7,87,30.13,10.0,East,3.5,-,N/A,,Clear,90,2013-02-25 09:15:00
4:35 AM,23.7,20.5,87,30.14,10.0,ESE,3.5,-,N/A,,Clear,110,2013-02-25 09:35:00
4:55 AM,24.1,20.8,87,30.14,10.0,ESE,3.5,-,N/A,,Clear,110,2013-02-25 09:55:00
5:15 AM,23.5,20.1,87,30.15,10.0,East,4.6,-,N/A,,Clear,100,2013-02-25 10:15:00
5:35 AM,24.1,20.3,85,30.15,7.0,East,5.8,-,N/A,,Clear,100,2013-02-25 10:35:00
5:55 AM,24.1,20.1,85,30.16,7.0,ESE,4.6,-,N/A,,Clear,120,2013-02-25 10:55:00
6:15 AM,24.4,20.1,84,30.17,7.0,ESE,4.6,-,N/A,Snow,Light Snow,110,2013-02-25 11:15:00
6:35 AM,24.6,20.3,84,30.17,10.0,ESE,4.6,-,N/A,,Clear,110,2013-02-25 11:35:00
6:55 AM,24.3,20.1,84,30.17,10.0,ESE,4.6,-,N/A,,Clear,120,2013-02-25 11:55:00
7:15 AM,24.3,19.8,83,30.17,10.0,ESE,4.6,-,N/A,,Clear,120,2013-02-25 12:15:00
7:35 AM,24.6,19.9,82,30.17,5.0,ESE,3.5,-,N/A,,Haze,120,2013-02-25 12:35:00
7:55 AM,25.2,20.1,81,30.18,3.0,Calm,Calm,-,N/A,Snow,Light Snow,0,2013-02-25 12:55:00
8:15 AM,25.7,21.0,82,30.18,1.2,Calm,Calm,-,N/A,Snow,Light Snow,0,2013-02-25 13:15:00
8:35 AM,27.0,22.1,82,30.17,2.5,East,3.5,-,N/A,Snow,Light Snow,90,2013-02-25 13:35:00
8:55 AM,28.9,22.8,78,30.17,7.0,East,4.6,-,N/A,,Clear,90,2013-02-25 13:55:00
9:15 AM,30.4,23.0,74,30.16,5.0,ESE,5.8,-,N/A,,Haze,120,2013-02-25 14:15:00
9:35 AM,31.6,23.4,71,30.16,10.0,ESE,8.1,-,N/A,,Clear,120,2013-02-25 14:35:00
9:55 AM,32.5,23.9,70,30.16,7.0,ESE,9.2,-,N/A,,Clear,120,2013-02-25 14:55:00
10:15 AM,33.6,23.9,68,30.17,10.0,SE,12.7,-,N/A,,Clear,130,2013-02-25 15:15:00
10:35 AM,34.0,24.4,68,30.16,10.0,ESE,10.4,-,N/A,,Clear,120,2013-02-25 15:35:00
10:55 AM,34.5,24.4,67,30.16,7.0,SE,11.5,-,N/A,,Clear,130,2013-02-25 15:55:00
11:15 AM,35.2,24.4,65,30.16,10.0,SE,10.4,-,N/A,,Clear,130,2013-02-25 16:15:00
11:35 AM,35.6,24.1,63,30.15,2.5,SE,8.1,-,N/A,Snow,Light Snow,130,2013-02-25 16:35:00
11:55 AM,36.5,24.3,61,30.15,7.0,SE,11.5,-,N/A,,Clear,130,2013-02-25 16:55:00
12:15 PM,37.0,24.8,61,30.13,10.0,ESE,10.4,-,N/A,,Clear,110,2013-02-25 17:15:00
12:35 PM,37.4,24.3,59,30.12,7.0,SE,12.7,-,N/A,,Clear,130,2013-02-25 17:35:00
12:55 PM,37.8,25.3,61,30.12,10.0,East,10.4,-,N/A,,Clear,100,2013-02-25 17:55:00
1:15 PM,38.1,24.6,58,30.11,10.0,SE,9.2,-,N/A,,Clear,130,2013-02-25 18:15:00
1:35 PM,38.7,24.6,57,30.09,10.0,East,12.7,-,N/A,,Clear,80,2013-02-25 18:35:00
1:55 PM,39.0,24.6,56,30.09,7.0,East,8.1,-,N/A,,Clear,90,2013-02-25 18:55:00
2:15 PM,39.6,24.8,56,30.09,7.0,ENE,6.9,-,N/A,,Clear,70,2013-02-25 19:15:00
2:35 PM,39.9,25.0,55,30.08,10.0,ESE,8.1,18.4,N/A,,Clear,110,2013-02-25 19:35:00
2:55 PM,40.3,25.3,55,30.07,10.0,East,10.4,16.1,N/A,,Clear,90,2013-02-25 19:55:00
3:15 PM,40.8,25.2,54,30.07,7.0,ESE,8.1,-,N/A,,Clear,110,2013-02-25 20:15:00
3:35 PM,41.0,25.2,53,30.06,10.0,East,11.5,16.1,N/A,,Clear,90,2013-02-25 20:35:00
3:55 PM,41.0,25.7,55,30.05,4.0,East,11.5,16.1,N/A,,Haze,90,2013-02-25 20:55:00
4:15 PM,41.2,26.2,55,30.04,3.0,ENE,15.0,-,N/A,,Haze,70,2013-02-25 21:15:00
4:35 PM,41.2,26.4,56,30.04,7.0,ENE,13.8,17.3,N/A,,Clear,70,2013-02-25 21:35:00
4:55 PM,41.0,26.1,55,30.04,10.0,ENE,12.7,-,N/A,,Clear,70,2013-02-25 21:55:00
5:15 PM,40.8,26.2,56,30.04,7.0,ENE,11.5,-,N/A,,Clear,70,2013-02-25 22:15:00
5:35 PM,40.1,26.2,58,30.04,10.0,East,12.7,-,N/A,,Clear,80,2013-02-25 22:35:00
5:55 PM,39.2,26.2,60,30.04,7.0,ENE,9.2,16.1,N/A,,Clear,70,2013-02-25 22:55:00
6:15 PM,37.6,26.4,64,30.02,7.0,ENE,10.4,-,N/A,,Clear,70,2013-02-25 23:15:00
6:35 PM,36.9,26.1,65,30.03,10.0,ENE,9.2,-,N/A,,Clear,60,2013-02-25 23:35:00
6:55 PM,36.1,26.4,68,30.03,7.0,ENE,8.1,-,N/A,,Clear,70,2013-02-25 23:55:00
7:15 PM,36.0,26.6,69,30.02,10.0,ENE,10.4,-,N/A,,Clear,70,2013-02-26 00:15:00
7:35 PM,35.6,26.6,70,30.00,10.0,ENE,12.7,-,N/A,,Clear,70,2013-02-26 00:35:00
7:55 PM,35.6,26.4,69,29.99,7.0,East,12.7,-,N/A,,Clear,80,2013-02-26 00:55:00
8:15 PM,35.6,26.2,69,29.99,10.0,ENE,13.8,-,N/A,,Clear,70,2013-02-26 01:15:00
8:35 PM,35.2,26.1,69,29.96,3.0,East,13.8,23.0,N/A,Rain,Light Rain,80,2013-02-26 01:35:00
9:15 PM,34.9,26.1,70,29.99,10.0,East,11.5,-,N/A,,Clear,90,2013-02-26 02:15:00
9:35 PM,34.7,26.1,71,30.00,10.0,East,10.4,-,N/A,,Clear,90,2013-02-26 02:35:00
9:55 PM,34.5,25.9,71,30.01,10.0,East,9.2,-,N/A,,Clear,100,2013-02-26 02:55:00
10:15 PM,34.2,26.1,72,30.01,7.0,East,11.5,-,N/A,,Clear,80,2013-02-26 03:15:00
10:35 PM,34.0,26.1,73,29.99,10.0,East,12.7,-,N/A,,Clear,80,2013-02-26 03:35:00
10:55 PM,33.8,26.1,73,29.97,10.0,ENE,12.7,-,N/A,,Clear,70,2013-02-26 03:55:00
11:15 PM,33.4,26.1,74,29.95,3.0,ENE,13.8,20.7,N/A,Snow,Light Snow,70,2013-02-26 04:15:00
11:35 PM,32.9,26.1,76,29.94,10.0,East,13.8,-,N/A,,Clear,80,2013-02-26 04:35:00
11:55 PM,32.9,26.1,76,29.94,10.0,East,13.8,20.7,N/A,,Clear,90,2013-02-26 04:55:00